Skip Navigation LinksHome page > Weather > Current weather Skip Navigation Links

Current Weather

New Tokyo International (Narita), Tokyo

For information only: do not use for flight planning or navigation.
Latest weather
Observation time Wednesday, March 29, 2017 3:30 PM JST
Local time Wednesday, March 29, 2017 4:13 PM JST
Flight conditions Visual Meteorological Conditions
Winds
Wind direction South-Southeast (160°)
Wind speed 12 mph
Visibility 6.2 mi.
Sky condition
Ceiling 5,000 ft. broken clouds
Cloud layer few clouds 3,000 ft.
Cloud layer scattered clouds 4,500 ft.
Cloud layer broken clouds 5,000 ft.
Temperature 52°F
Dewpoint 32°F
Altimeter 30.15 in.Hg
Derived measurements
Relative humidity 47%
Density altitude -500 ft.
Remarks
No significant changes expected in the next two hours.
METAR RJAA 290630Z 16010KT 9999 FEW030 SCT045 BKN050 11/00 Q1021 NOSIG RMK 1CU030 3CU045 5SC050 A3018

Settings

Location code

InnerDrive.Weather 4.0.6144.1 Release CLR 4.0.30319.34209
Copyright ©2015 Inner Drive Technology. All rights reserved. Portions Copyright ©1986-2015 David Braverman.

Find weather

Site navigation


Skip Navigation Links

Place info

Page info

PayPal - The safer, easier way to pay online!

Return home.

Copyright ©2017 Inner Drive Technology. Purveyors of fine, hand-crafted computer software. Page printed 2017-03-29T07:13:13 UTC.